Time;durP1;ratioP1;P1;durP2;ratioP2;P2;SDS_P1;SDS_P2;PMS_P1;PMS_P2;Temp;Humidity;BMP_temperature;BMP_pressure;BME280_temperature;BME280_humidity;BME280_pressure;Samples;Min_cycle;Max_cycle;Signal;HPM_P1;HPM_P2
2021/01/31 00:01:06;;;;;;;13.80;8.55;;;2.20;84.70;;;3.14;65.42;99275.41;5001901;28;20676;-89
2021/01/31 00:03:33;;;;;;;13.95;8.20;;;2.20;84.90;;;3.16;64.91;99277.94;4985477;28;20057;-89
2021/01/31 00:06:04;;;;;;;14.70;8.68;;;2.10;84.30;;;3.16;65.00;99280.63;4986817;28;20042;-89
2021/01/31 00:08:31;;;;;;;17.27;10.05;;;2.10;84.90;;;3.10;65.23;99291.06;4986917;28;20230;-89
2021/01/31 00:11:00;;;;;;;16.00;9.77;;;2.00;84.90;;;3.03;65.45;99289.19;4985496;28;20089;-89
2021/01/31 00:13:29;;;;;;;14.48;9.23;;;2.00;85.00;;;3.01;65.03;99292.03;4986583;28;20050;-89
2021/01/31 00:15:58;;;;;;;13.98;8.93;;;2.10;85.00;;;3.01;65.53;99291.19;5001780;28;20049;-89
2021/01/31 00:18:28;;;;;;;13.38;8.18;;;2.00;85.60;;;3.02;65.55;99299.09;4985644;28;20054;-89
2021/01/31 00:20:59;;;;;;;15.63;8.80;;;2.00;85.40;;;3.03;65.07;99290.03;4987210;28;20485;-89
2021/01/31 00:23:27;;;;;;;16.13;8.70;;;2.00;85.20;;;3.00;65.84;99295.72;4986924;28;20046;-89
2021/01/31 00:25:54;;;;;;;14.18;8.38;;;2.00;85.40;;;2.96;65.71;99297.06;4985452;28;20049;-89
2021/01/31 00:28:26;;;;;;;12.93;8.10;;;1.90;85.70;;;2.96;65.88;99304.28;4986758;28;20046;-89
2021/01/31 00:30:53;;;;;;;15.10;8.60;;;2.00;86.00;;;2.97;65.83;99301.44;4985420;28;20055;-89
2021/01/31 00:33:23;;;;;;;13.35;8.70;;;2.00;85.40;;;2.98;65.68;99302.28;4986794;28;20869;-89
2021/01/31 00:35:52;;;;;;;16.65;8.45;;;2.00;85.70;;;2.96;66.14;99305.13;4986644;28;20046;-89
2021/01/31 00:38:23;;;;;;;16.50;8.10;;;1.90;85.90;;;2.97;65.46;99312.19;4986774;28;20515;-90
2021/01/31 00:40:51;;;;;;;13.50;8.23;;;2.00;85.40;;;2.99;65.60;99309.31;4986675;28;20050;-89
2021/01/31 00:43:18;;;;;;;16.60;8.93;;;1.90;85.70;;;2.94;65.17;99312.53;5001534;28;20050;-89
2021/01/31 00:45:45;;;;;;;14.32;8.50;;;1.80;85.40;;;2.94;65.78;99317.91;4986656;28;20417;-88
2021/01/31 00:48:14;;;;;;;15.60;9.00;;;1.80;86.30;;;2.91;65.79;99321.75;4985013;28;20073;-88
2021/01/31 00:50:41;;;;;;;14.73;8.80;;;1.80;85.90;;;2.91;66.16;99326.28;4986454;28;20043;-88
2021/01/31 00:53:16;;;;;;;13.65;7.75;;;1.80;86.10;;;2.90;66.39;99327.28;4985379;28;20161;-89
2021/01/31 00:55:47;;;;;;;15.85;8.23;;;1.90;86.30;;;2.93;65.57;99327.81;5003709;28;20050;-88
2021/01/31 00:58:20;;;;;;;13.52;8.00;;;1.90;85.90;;;2.95;65.84;99324.94;4988955;28;20072;-89
2021/01/31 01:00:49;;;;;;;13.70;8.30;;;1.90;85.70;;;2.97;65.56;99328.31;5005289;28;20050;-88
2021/01/31 01:03:20;;;;;;;12.88;8.07;;;1.90;85.70;;;2.94;65.30;99329.47;4989393;28;20143;-88
2021/01/31 01:06:13;;;;;;;12.77;7.85;;;1.90;85.60;;;2.90;66.23;99333.50;4989085;28;20515;-88
2021/01/31 01:08:42;;;;;;;14.70;8.68;;;1.90;86.00;;;2.91;66.16;99326.28;4988838;28;20046;-88
2021/01/31 01:11:10;;;;;;;13.48;7.60;;;1.90;85.80;;;2.85;66.05;99330.47;4990101;28;20097;-88
2021/01/31 01:13:37;;;;;;;14.48;8.32;;;1.80;85.60;;;2.90;65.70;99332.66;4990074;28;20054;-88
2021/01/31 01:16:05;;;;;;;13.13;8.25;;;1.90;86.30;;;2.93;65.65;99337.69;4989818;28;20043;-87
2021/01/31 01:18:32;;;;;;;12.65;7.32;;;1.80;85.70;;;2.91;65.58;99331.66;4989957;28;20042;-89
2021/01/31 01:20:59;;;;;;;13.57;8.05;;;1.90;85.80;;;2.90;65.94;99327.28;5004704;28;20130;-87
2021/01/31 01:23:26;;;;;;;13.23;7.95;;;1.80;85.50;;;2.87;65.44;99316.88;4988373;28;20054;-88
2021/01/31 01:25:53;;;;;;;13.57;8.30;;;2.00;85.50;;;2.86;65.05;99329.47;4989969;28;20081;-89
2021/01/31 01:28:21;;;;;;;13.68;8.00;;;1.80;85.60;;;2.84;65.49;99333.34;4989606;28;20038;-89
2021/01/31 01:30:47;;;;;;;12.68;7.90;;;1.80;86.20;;;2.83;65.44;99326.25;5004666;28;20054;-89
2021/01/31 01:33:14;;;;;;;12.65;8.13;;;1.80;85.40;;;2.80;65.53;99334.63;4989843;28;20105;-88
2021/01/31 01:35:41;;;;;;;14.88;7.97;;;1.70;85.70;;;2.82;65.64;99327.25;4988366;28;20833;-88
2021/01/31 01:38:08;;;;;;;13.10;7.55;;;1.70;86.10;;;2.78;66.35;99328.59;4988301;28;20562;-88
2021/01/31 01:40:37;;;;;;;13.73;8.13;;;1.70;86.30;;;2.78;65.72;99332.16;5004829;28;20046;-88
2021/01/31 01:43:05;;;;;;;13.57;7.63;;;1.70;86.00;;;2.83;65.24;99334.31;5004763;28;20049;-88
2021/01/31 01:45:33;;;;;;;11.73;7.53;;;1.70;85.80;;;2.76;65.27;99333.28;4989513;28;20121;-88
2021/01/31 01:48:10;;;;;;;12.27;7.80;;;1.70;85.70;;;2.71;66.16;99326.56;4989492;28;20043;-88
2021/01/31 01:50:45;;;;;;;12.95;7.78;;;1.60;86.10;;;2.78;65.86;99328.59;5004649;28;20046;-88
2021/01/31 01:53:14;;;;;;;14.82;8.10;;;1.70;86.40;;;2.79;66.04;99341.03;4989719;28;20136;-89
2021/01/31 01:55:55;;;;;;;12.93;7.97;;;1.60;86.00;;;2.76;65.85;99341.34;4987839;28;20128;-88
2021/01/31 01:58:27;;;;;;;13.23;7.95;;;1.60;86.00;;;2.70;65.98;99332.97;5004233;28;20463;-88
2021/01/31 02:00:57;;;;;;;12.15;7.63;;;1.60;86.10;;;2.67;65.61;99335.97;5004082;28;20457;-89
2021/01/31 02:03:29;;;;;;;13.23;8.13;;;1.60;86.10;;;2.67;65.97;99327.06;5004272;28;20046;-89
2021/01/31 02:06:00;;;;;;;13.18;7.47;;;1.60;86.40;;;2.65;65.84;99329.91;5003605;28;20057;-88
2021/01/31 02:08:27;;;;;;;13.98;8.30;;;1.60;86.00;;;2.66;65.55;99331.56;4989071;28;20058;-89
2021/01/31 02:10:54;;;;;;;14.65;8.15;;;1.50;86.20;;;2.65;65.90;99340.66;4989249;28;20411;-89
2021/01/31 02:13:22;;;;;;;14.07;8.48;;;1.60;86.20;;;2.63;65.87;99342.66;4987497;28;20489;-89
2021/01/31 02:15:49;;;;;;;13.43;8.13;;;1.60;86.30;;;2.63;65.63;99341.84;5004072;28;20050;-89
2021/01/31 02:18:35;;;;;;;12.57;7.57;;;1.50;86.20;;;2.62;65.80;99343.66;4989163;28;20057;-89
2021/01/31 02:21:46;;;;;;;11.18;7.15;;;1.50;85.90;;;2.59;65.89;99346.69;4988946;28;20061;-89
2021/01/31 02:25:16;;;;;;;13.15;7.68;;;1.50;86.10;;;2.63;65.93;99348.03;4989173;28;20046;-89
2021/01/31 02:28:37;;;;;;;12.80;7.28;;;1.50;86.50;;;2.60;65.53;99348.34;4988945;28;20054;-89
2021/01/31 02:31:33;;;;;;;13.25;7.97;;;1.50;86.30;;;2.58;65.97;99342.31;5006147;28;20053;-89
2021/01/31 02:34:09;;;;;;;14.57;7.63;;;1.50;86.10;;;2.62;65.69;99343.66;4975972;28;20062;-89
2021/01/31 02:36:50;;;;;;;15.32;8.48;;;1.50;86.20;;;2.58;65.78;99336.94;4970878;28;20058;-89
2021/01/31 02:39:37;;;;;;;12.32;7.28;;;1.40;86.20;;;2.64;65.66;99338.13;4986885;28;20189;-89
2021/01/31 02:42:35;;;;;;;11.95;7.78;;;1.40;86.40;;;2.57;64.79;99337.09;4989358;28;20042;-88
2021/01/31 02:45:17;;;;;;;14.73;7.78;;;1.40;86.00;;;2.49;65.38;99337.91;5001800;28;20061;-90
2021/01/31 02:47:51;;;;;;;11.75;7.40;;;1.30;86.30;;;2.46;65.76;99330.19;5003947;28;20042;-89
2021/01/31 02:50:24;;;;;;;13.10;8.20;;;1.30;86.70;;;2.47;65.65;99338.06;5004096;28;20065;-89
2021/01/31 02:52:58;;;;;;;13.27;8.13;;;1.30;86.60;;;2.48;65.92;99334.38;5003957;28;20078;-89
2021/01/31 02:55:29;;;;;;;13.30;7.50;;;1.30;86.40;;;2.48;65.55;99338.91;5003521;28;20504;-89
2021/01/31 02:58:04;;;;;;;13.48;7.43;;;1.30;86.10;;;2.45;65.80;99336.53;4988827;28;20042;-89
2021/01/31 03:00:38;;;;;;;14.82;7.53;;;1.30;86.50;;;2.44;65.64;99332.19;4988881;28;20113;-88
2021/01/31 03:03:11;;;;;;;13.85;7.70;;;1.30;86.60;;;2.44;65.74;99329.50;5003961;28;20057;-89
2021/01/31 03:05:43;;;;;;;13.95;7.78;;;1.30;86.50;;;2.51;66.05;99330.53;5003578;28;20042;-88
2021/01/31 03:08:17;;;;;;;12.63;7.60;;;1.30;86.30;;;2.43;65.46;99334.00;5003481;28;20046;-88
2021/01/31 03:10:52;;;;;;;14.38;8.18;;;1.30;86.40;;;2.39;65.35;99329.97;5003132;28;20047;-88
2021/01/31 03:13:26;;;;;;;11.73;7.53;;;1.20;86.20;;;2.33;65.58;99328.78;5003502;28;20050;-88
2021/01/31 03:16:00;;;;;;;12.80;7.50;;;1.10;86.50;;;2.32;65.69;99329.78;5003135;28;20066;-88
2021/01/31 03:18:37;;;;;;;14.60;7.65;;;1.10;86.60;;;2.27;66.06;99331.28;4999326;28;20055;-88
2021/01/31 03:21:12;;;;;;;12.68;7.55;;;1.10;86.50;;;2.28;65.64;99333.78;4984357;28;20054;-88
2021/01/31 03:23:46;;;;;;;12.82;7.47;;;1.10;86.70;;;2.31;65.72;99329.94;4967869;28;20062;-88
2021/01/31 03:26:21;;;;;;;13.10;8.02;;;1.10;86.80;;;2.32;65.52;99327.09;4983542;28;20058;-88
2021/01/31 03:28:48;;;;;;;15.07;8.23;;;1.20;86.50;;;2.32;65.57;99320.88;4984797;28;20444;-88
2021/01/31 03:31:21;;;;;;;12.02;7.35;;;1.10;86.60;;;2.33;65.34;99334.13;4984056;28;20050;-88
2021/01/31 03:33:54;;;;;;;12.13;7.60;;;1.10;86.50;;;2.30;65.30;99322.88;4967775;28;20058;-89
2021/01/31 03:36:27;;;;;;;14.05;7.90;;;1.10;86.60;;;2.25;65.82;99326.06;4983759;28;20046;-88
2021/01/31 03:38:56;;;;;;;15.13;8.02;;;1.00;86.60;;;2.26;65.67;99325.03;4979685;28;20043;-90
2021/01/31 03:41:28;;;;;;;12.52;7.05;;;1.00;86.60;;;2.26;65.25;99327.72;5003372;28;20101;-91
2021/01/31 03:43:55;;;;;;;14.50;8.00;;;1.00;86.60;;;2.20;65.63;99331.06;5003112;28;20050;-91
2021/01/31 03:46:34;;;;;;;13.90;7.88;;;1.00;86.60;;;2.23;65.96;99321.84;5002408;28;20076;-90
2021/01/31 03:49:07;;;;;;;15.73;8.32;;;1.00;86.60;;;2.24;65.37;99327.03;4987587;28;20046;-90
2021/01/31 03:51:36;;;;;;;14.18;7.97;;;1.00;86.50;;;2.20;65.61;99323.00;4987600;28;20057;-90
2021/01/31 03:54:04;;;;;;;14.20;7.68;;;1.00;86.50;;;2.17;66.14;99326.03;4986641;28;20050;-90
2021/01/31 03:56:41;;;;;;;14.10;8.15;;;1.00;87.00;;;2.23;65.49;99320.00;5001917;28;20580;-90
2021/01/31 03:59:10;;;;;;;14.00;8.23;;;1.00;86.60;;;2.13;65.59;99316.59;4999869;28;20527;-90
2021/01/31 04:01:39;;;;;;;14.20;8.05;;;0.90;86.60;;;2.16;65.48;99313.59;4984401;28;20035;-90
2021/01/31 04:04:15;;;;;;;14.55;7.70;;;0.90;86.80;;;2.13;65.45;99313.91;4984555;28;20047;-90
2021/01/31 04:06:50;;;;;;;13.20;7.70;;;0.90;86.70;;;2.14;65.45;99315.59;4984790;28;20787;-90
2021/01/31 04:09:18;;;;;;;13.88;8.00;;;0.90;87.00;;;2.16;65.63;99318.97;4967798;28;20425;-90
2021/01/31 04:11:46;;;;;;;13.48;8.10;;;0.90;87.00;;;2.15;65.57;99333.38;4968087;28;20093;-90
2021/01/31 04:14:21;;;;;;;13.60;8.27;;;0.90;86.80;;;2.08;65.41;99340.41;4983853;28;20089;-89
2021/01/31 04:16:51;;;;;;;13.35;7.57;;;0.80;86.70;;;2.10;65.85;99341.91;4967556;28;20047;-90
2021/01/31 04:19:20;;;;;;;13.57;7.43;;;0.80;86.90;;;2.06;65.17;99350.44;4983252;28;20516;-90
2021/01/31 04:21:50;;;;;;;;;;;0.90;86.90;;;2.03;65.62;99346.22;5004204;28;20137;-90
2021/01/31 04:24:17;;;;;;;14.57;8.07;;;0.80;87.00;;;1.99;65.79;99341.34;5003364;28;19933;-90
2021/01/31 04:26:44;;;;;;;12.90;8.25;;;0.80;86.80;;;1.98;66.24;99347.69;4986358;28;20797;-91
2021/01/31 04:29:11;;;;;;;14.05;8.02;;;0.80;87.10;;;1.93;65.49;99346.34;5005381;28;20057;-90
2021/01/31 04:31:38;;;;;;;15.07;8.20;;;0.70;87.00;;;1.91;66.20;99342.97;5009051;28;20050;-89
2021/01/31 04:34:05;;;;;;;13.43;7.95;;;0.70;87.40;;;1.93;65.79;99353.56;5008313;28;20077;-89
2021/01/31 04:36:32;;;;;;;14.90;9.10;;;0.70;87.20;;;1.95;66.11;99348.88;5007871;28;20069;-90
2021/01/31 04:38:59;;;;;;;15.38;8.32;;;0.70;87.60;;;1.93;66.02;99349.03;4991431;28;20042;-90
2021/01/31 04:41:33;;;;;;;16.42;8.68;;;0.70;87.60;;;1.98;65.93;99345.88;4991851;28;20150;-89
2021/01/31 04:44:01;;;;;;;14.50;8.20;;;0.70;87.60;;;1.95;65.93;99359.59;5008682;28;20551;-90
2021/01/31 04:46:40;;;;;;;16.17;9.32;;;0.60;87.40;;;1.91;65.56;99356.38;5007647;28;20435;-90
2021/01/31 04:49:37;;;;;;;17.40;8.30;;;0.60;87.30;;;1.87;65.64;99356.88;4993427;28;20034;-90
2021/01/31 04:52:41;;;;;;;16.05;8.98;;;0.50;87.60;;;1.80;65.74;99367.38;5008635;28;20054;-90
2021/01/31 04:55:25;;;;;;;15.55;8.77;;;0.50;88.00;;;1.76;66.29;99366.00;4959434;28;20058;-90
2021/01/31 04:58:05;;;;;;;14.30;8.43;;;0.50;88.30;;;1.84;66.28;99378.63;4991417;28;20084;-90
2021/01/31 05:00:40;;;;;;;13.57;8.20;;;0.50;88.00;;;1.85;66.26;99369.59;5008403;28;20058;-90
2021/01/31 05:03:07;;;;;;;16.27;9.02;;;0.60;88.00;;;1.86;65.77;99372.09;4993662;28;20046;-90
2021/01/31 05:05:40;;;;;;;14.50;8.85;;;0.60;87.70;;;1.79;65.99;99375.56;5007945;28;20053;-90
2021/01/31 05:08:14;;;;;;;15.20;8.65;;;0.50;87.70;;;1.82;66.46;99369.91;4993155;28;20480;-90
2021/01/31 05:10:42;;;;;;;16.08;8.88;;;0.50;88.00;;;1.80;66.28;99372.75;4992936;28;20388;-90
2021/01/31 05:13:26;;;;;;;15.02;8.63;;;0.50;87.70;;;1.74;65.69;99359.97;4992758;28;20545;-90
2021/01/31 05:16:03;;;;;;;16.55;9.10;;;0.40;87.50;;;1.75;65.67;99361.63;5007840;28;20046;-90
2021/01/31 05:18:32;;;;;;;12.15;7.57;;;0.40;87.90;;;1.76;66.18;99366.84;4993253;28;20050;-90
2021/01/31 05:21:05;;;;;;;15.93;8.90;;;0.40;88.20;;;1.73;66.32;99360.94;4991779;28;20093;-90
2021/01/31 05:23:38;;;;;;;16.00;9.15;;;0.40;87.80;;;1.71;65.92;99366.50;4991866;28;20100;-89
2021/01/31 05:26:10;;;;;;;16.08;9.05;;;0.50;88.00;;;1.74;66.29;99368.00;5007627;28;20132;-90
2021/01/31 05:28:44;;;;;;;16.27;9.02;;;0.40;88.10;;;1.74;66.27;99368.00;5008050;28;20408;-90
2021/01/31 05:31:12;;;;;;;15.57;8.85;;;0.40;87.90;;;1.66;66.31;99381.38;5008071;28;20042;-90
2021/01/31 05:33:52;;;;;;;15.77;8.50;;;0.40;87.80;;;1.69;66.13;99381.88;5008132;28;20828;-90
2021/01/31 05:36:21;;;;;;;16.40;9.25;;;0.40;88.00;;;1.70;65.99;99382.72;5007874;28;20046;-90
2021/01/31 05:38:50;;;;;;;15.02;8.65;;;0.40;87.90;;;1.65;65.91;99385.03;5007698;28;20054;-90
2021/01/31 05:41:44;;;;;;;15.90;8.45;;;0.40;87.60;;;1.59;65.95;99382.97;5005633;28;20046;-90
2021/01/31 05:44:26;;;;;;;15.32;9.07;;;0.30;87.60;;;1.61;65.80;99372.94;4989693;28;20046;-89
2021/01/31 05:46:56;;;;;;;16.13;9.18;;;0.30;88.20;;;1.55;66.02;99372.53;4987800;28;20116;-90
2021/01/31 05:49:47;;;;;;;16.20;8.90;;;0.20;88.00;;;1.55;66.36;99375.22;4988444;28;20047;-90
2021/01/31 05:52:34;;;;;;;15.27;9.18;;;0.20;88.40;;;1.51;66.20;99373.84;4991566;28;20415;-90
2021/01/31 05:55:16;;;;;;;15.18;9.00;;;0.10;88.10;;;1.51;66.08;99367.66;5003592;28;20054;-90
2021/01/31 05:57:44;;;;;;;16.90;9.73;;;0.10;88.30;;;1.46;66.17;99368.09;4989660;28;20034;-90
2021/01/31 06:00:29;;;;;;;14.68;8.73;;;0.10;88.10;;;1.44;66.73;99378.16;5004839;28;20046;-89
2021/01/31 06:03:04;;;;;;;19.52;9.75;;;0.10;88.80;;;1.52;66.43;99375.56;5004928;28;20058;-90
2021/01/31 06:05:32;;;;;;;15.48;8.90;;;0.20;88.70;;;1.48;65.94;99381.38;5004094;28;20050;-90
2021/01/31 06:08:03;;;;;;;16.23;8.18;;;0.10;88.40;;;1.44;66.15;99383.50;4989643;28;20046;-91
2021/01/31 06:10:33;;;;;;;16.08;9.52;;;0.10;88.60;;;1.46;66.71;99386.88;4988175;28;20050;-91
2021/01/31 06:13:10;;;;;;;18.00;9.70;;;0.10;88.70;;;1.42;66.21;99384.66;4987870;28;20104;-89
2021/01/31 06:15:43;;;;;;;20.40;9.05;;;0.20;88.30;;;1.44;66.24;99388.88;5004026;28;20065;-90
2021/01/31 06:18:20;;;;;;;15.35;8.75;;;0.10;88.40;;;1.42;66.40;99380.13;5000962;28;20054;-90
2021/01/31 06:20:48;;;;;;;16.13;9.55;;;0.30;88.60;;;1.41;66.66;99383.84;4984994;28;20420;-90
2021/01/31 06:23:36;;;;;;;15.77;9.18;;;0.10;88.50;;;1.42;66.76;99385.50;4969689;28;20035;-91
2021/01/31 06:26:05;;;;;;;16.75;8.88;;;0.10;88.60;;;1.37;66.57;99382.44;4984476;28;20105;-90
2021/01/31 06:28:44;;;;;;;15.95;9.15;;;0.10;88.50;;;1.33;66.87;99387.28;4968410;28;20057;-91
2021/01/31 06:31:31;;;;;;;18.17;9.35;;;0.00;88.40;;;1.31;66.60;99381.22;4969187;28;20057;-91
2021/01/31 06:33:59;;;;;;;17.17;10.13;;;0.00;88.40;;;1.33;66.52;99395.31;4969543;28;20042;-91
2021/01/31 06:36:40;;;;;;;19.00;9.27;;;0.00;88.60;;;1.30;66.50;99405.50;4985497;28;20047;-91
2021/01/31 06:39:31;;;;;;;15.75;9.13;;;0.00;88.50;;;1.28;66.17;99404.81;4987457;28;20050;-89
2021/01/31 06:42:17;;;;;;;17.53;9.67;;;-0.10;88.40;;;1.23;66.72;99401.75;4970887;28;20046;-90
2021/01/31 06:45:07;;;;;;;18.38;9.63;;;-0.10;89.00;;;1.26;66.21;99401.44;4969513;28;20051;-91
2021/01/31 06:48:12;;;;;;;16.77;9.13;;;-0.10;88.70;;;1.25;66.77;99400.59;4985146;28;20042;-89
2021/01/31 06:50:58;;;;;;;15.50;8.90;;;-0.10;88.90;;;1.22;66.60;99408.06;4967712;28;20046;-90
2021/01/31 06:53:42;;;;;;;16.23;9.18;;;-0.10;89.00;;;1.20;66.61;99405.56;4968197;28;20074;-89
2021/01/31 06:56:59;;;;;;;17.98;9.60;;;-0.20;88.90;;;1.24;66.92;99411.44;4968034;28;20058;-89
2021/01/31 07:00:07;;;;;;;15.93;9.25;;;-0.10;89.10;;;1.20;66.37;99418.97;4983904;28;20100;-89
2021/01/31 07:03:24;;;;;;;20.92;10.30;;;-0.20;88.80;;;1.14;66.13;99408.84;4968994;28;20047;-89
2021/01/31 07:06:12;;;;;;;17.55;9.43;;;-0.20;89.00;;;1.11;66.61;99401.97;4978928;28;20107;-89
2021/01/31 07:09:18;;;;;;;21.90;9.88;;;-0.30;89.30;;;1.14;66.73;99393.63;4987128;28;20045;-88
2021/01/31 07:11:53;;;;;;;16.45;9.43;;;-0.30;89.30;;;1.06;66.76;99395.38;5003147;28;20054;-88
2021/01/31 07:14:40;;;;;;;19.35;10.10;;;-0.30;89.10;;;1.01;66.54;99393.16;4987178;28;20061;-88
2021/01/31 07:17:29;;;;;;;18.40;9.40;;;-0.30;89.00;;;1.04;66.76;99387.47;5003717;28;20072;-89
2021/01/31 07:20:02;;;;;;;17.08;10.00;;;-0.40;89.60;;;0.97;66.60;99391.75;4987035;28;20885;-89
2021/01/31 07:22:40;;;;;;;18.92;10.13;;;-0.40;89.40;;;1.04;66.76;99392.81;4988138;28;20049;-89
2021/01/31 07:25:16;;;;;;;18.00;9.85;;;-0.30;89.60;;;0.97;66.93;99411.34;4987988;28;20042;-89
2021/01/31 07:27:54;;;;;;;19.50;10.32;;;-0.40;89.50;;;1.06;66.78;99417.63;5002816;28;20053;-89
2021/01/31 07:30:28;;;;;;;18.98;10.55;;;-0.40;90.00;;;1.04;66.88;99419.63;5002529;28;20415;-89
2021/01/31 07:33:14;;;;;;;19.45;10.20;;;-0.30;89.60;;;0.95;66.77;99421.38;4987499;28;20515;-88
2021/01/31 07:36:00;;;;;;;17.38;9.95;;;-0.40;89.10;;;0.97;66.80;99418.53;4964387;28;20107;-88
2021/01/31 07:38:34;;;;;;;21.60;11.20;;;-0.40;89.40;;;0.94;66.73;99422.34;5001634;28;20047;-88
2021/01/31 07:41:04;;;;;;;21.73;11.13;;;-0.40;89.40;;;0.93;66.87;99417.16;4985176;28;20334;-89
2021/01/31 07:43:37;;;;;;;21.55;10.80;;;-0.40;89.50;;;0.96;66.70;99409.66;5003289;28;20459;-88
2021/01/31 07:46:08;;;;;;;19.23;10.00;;;-0.40;89.50;;;0.98;67.39;99414.88;5003223;28;20061;-87
2021/01/31 07:48:59;;;;;;;19.50;10.88;;;-0.40;89.70;;;0.92;67.09;99404.75;5003564;28;20046;-87
2021/01/31 07:52:02;;;;;;;20.30;10.85;;;-0.40;89.50;;;0.86;67.13;99394.66;5004862;28;20054;-87
2021/01/31 07:54:36;;;;;;;19.80;11.13;;;-0.50;89.80;;;0.90;67.37;99396.03;5005152;28;20124;-87
2021/01/31 07:57:34;;;;;;;20.88;10.73;;;-0.50;89.80;;;0.92;67.13;99394.06;4989396;28;20053;-87
2021/01/31 08:00:10;;;;;;;22.15;11.65;;;-0.50;89.80;;;0.91;67.11;99395.88;4990761;28;20050;-87
2021/01/31 08:02:41;;;;;;;21.77;11.13;;;-0.50;89.80;;;0.87;67.71;99397.16;4990230;28;20054;-86
2021/01/31 08:05:13;;;;;;;19.15;10.65;;;-0.50;90.00;;;0.90;67.54;99396.03;4989395;28;20050;-86
2021/01/31 08:08:04;;;;;;;18.35;10.10;;;-0.40;90.00;;;0.93;67.56;99395.72;4987132;28;20769;-88
2021/01/31 08:10:47;;;;;;;20.83;10.73;;;-0.40;90.00;;;0.90;67.44;99396.03;4989998;28;20046;-88
2021/01/31 08:13:41;;;;;;;20.75;11.10;;;-0.40;89.60;;;0.94;67.77;99386.72;5005553;28;20046;-87
2021/01/31 08:16:56;;;;;;;20.40;10.73;;;-0.40;90.10;;;0.96;67.88;99400.78;5004283;28;20526;-88
2021/01/31 08:19:32;;;;;;;19.92;10.70;;;-0.40;90.30;;;0.95;67.88;99399.94;4928847;29;20070;-88
2021/01/31 08:22:02;;;;;;;20.02;11.00;;;-0.30;90.00;;;0.91;68.12;99398.53;4983673;28;20044;-87
2021/01/31 08:25:00;;;;;;;20.33;10.73;;;-0.20;89.80;;;0.99;68.08;99403.19;5004451;28;20051;-88
2021/01/31 08:27:56;;;;;;;21.08;11.45;;;-0.20;89.80;;;1.06;68.24;99414.13;4989510;28;20057;-87
2021/01/31 08:30:31;;;;;;;21.17;10.52;;;-0.10;90.00;;;1.04;68.20;99408.91;4963625;28;20431;-87
2021/01/31 08:33:22;;;;;;;21.23;11.45;;;0.00;89.80;;;1.10;68.13;99407.47;4991069;28;20283;-87
2021/01/31 08:36:04;;;;;;;26.52;11.20;;;0.10;89.30;;;1.13;68.23;99402.66;4989699;28;20054;-86
2021/01/31 08:38:48;;;;;;;23.08;11.65;;;0.10;89.30;;;1.19;68.22;99400.38;4990150;28;20057;-85
2021/01/31 08:41:42;;;;;;;20.92;11.25;;;0.20;89.40;;;1.16;68.18;99407.72;5004877;28;20082;-86
2021/01/31 08:44:56;;;;;;;19.67;10.48;;;0.20;89.10;;;1.20;68.30;99402.03;4989385;28;20046;-89
2021/01/31 08:47:23;;;;;;;19.38;10.60;;;0.30;88.80;;;1.22;67.71;99392.88;5004029;28;20690;-88
2021/01/31 08:50:01;;;;;;;20.20;10.80;;;0.40;88.00;;;1.20;67.93;99397.53;5000197;28;20471;-87
2021/01/31 08:52:28;;;;;;;20.95;11.00;;;0.40;88.20;;;1.28;67.88;99394.94;4987469;28;20042;-87
2021/01/31 08:55:01;;;;;;;19.30;10.85;;;0.40;87.80;;;1.33;67.33;99399.81;4985795;28;20065;-89
2021/01/31 08:57:28;;;;;;;19.63;10.50;;;0.50;87.40;;;1.39;67.29;99396.56;5001909;28;20097;-88
2021/01/31 09:00:04;;;;;;;19.35;10.98;;;0.60;87.50;;;1.45;67.38;99400.47;5001528;28;20053;-89
2021/01/31 09:02:33;;;;;;;19.52;10.85;;;0.60;87.30;;;1.48;67.36;99395.59;5001762;28;20065;-87
2021/01/31 09:05:11;;;;;;;19.33;10.55;;;0.70;87.20;;;1.50;67.41;99398.97;5001716;28;20112;-88
2021/01/31 09:07:40;;;;;;;20.33;11.18;;;0.70;87.30;;;1.54;67.73;99405.72;4984836;28;20050;-87
2021/01/31 09:10:18;;;;;;;17.23;10.43;;;0.80;87.40;;;1.54;67.83;99411.09;4985256;28;20081;-89
2021/01/31 09:12:45;;;;;;;18.90;10.57;;;0.80;87.10;;;1.58;67.43;99405.41;4998745;28;20054;-90
2021/01/31 09:15:22;;;;;;;22.02;11.13;;;0.80;86.60;;;1.61;66.95;99410.47;4984014;28;20070;-89
2021/01/31 09:17:49;;;;;;;19.70;10.55;;;0.90;86.20;;;1.64;66.52;99421.75;4989211;28;20050;-89
2021/01/31 09:20:24;;;;;;;18.77;9.98;;;0.90;86.20;;;1.66;66.41;99425.09;4990354;28;20073;-89
2021/01/31 09:22:54;;;;;;;19.20;10.65;;;1.10;85.90;;;1.64;66.63;99420.88;4990551;28;20046;-90
2021/01/31 09:25:25;;;;;;;18.45;10.45;;;0.90;85.60;;;1.64;66.71;99415.50;5003648;28;20558;-90
2021/01/31 09:28:02;;;;;;;20.80;10.93;;;1.00;85.80;;;1.67;66.74;99417.91;4999597;28;20101;-88
2021/01/31 09:30:31;;;;;;;19.13;10.40;;;1.10;85.90;;;1.67;66.54;99420.56;4990082;28;20568;-89
2021/01/31 09:33:05;;;;;;;19.05;9.75;;;1.10;85.40;;;1.71;66.53;99411.22;4989526;28;20164;-88
2021/01/31 09:35:38;;;;;;;18.85;10.35;;;1.10;85.30;;;1.73;66.26;99409.22;4988076;28;20049;-89
2021/01/31 09:38:19;;;;;;;23.17;11.07;;;1.10;85.10;;;1.79;66.49;99408.63;5004855;28;20072;-89
2021/01/31 09:40:48;;;;;;;19.48;10.38;;;1.20;85.30;;;1.82;66.89;99405.59;5001611;28;20042;-91
2021/01/31 09:43:21;;;;;;;17.25;9.82;;;1.30;85.20;;;1.88;66.51;99410.34;5008082;28;20424;-90
2021/01/31 09:45:51;;;;;;;18.00;9.77;;;1.30;85.20;;;1.89;65.72;99406.69;5005558;28;20054;-90
2021/01/31 09:48:23;;;;;;;19.20;10.25;;;1.40;84.30;;;1.91;66.26;99411.91;5020553;28;20058;-90
2021/01/31 09:50:56;;;;;;;22.17;11.50;;;1.40;84.70;;;1.94;66.60;99404.38;4991009;28;20121;-89
2021/01/31 09:53:34;;;;;;;20.15;10.65;;;1.50;84.80;;;1.92;66.70;99398.31;4990254;28;20057;-88
2021/01/31 09:56:06;;;;;;;19.40;10.93;;;1.50;84.70;;;2.00;66.06;99402.91;5005800;28;20516;-90
2021/01/31 09:58:44;;;;;;;19.33;10.80;;;1.50;84.40;;;2.01;66.21;99409.09;5004622;28;20050;-90
2021/01/31 10:01:20;;;;;;;19.08;10.35;;;1.60;84.20;;;2.05;66.36;99414.00;4989874;28;20042;-89
2021/01/31 10:03:57;;;;;;;18.25;10.10;;;1.60;84.10;;;2.07;65.71;99411.16;5004110;28;20048;-90
2021/01/31 10:06:25;;;;;;;19.65;10.15;;;1.70;83.50;;;2.10;66.31;99410.84;5004750;28;20153;-89
2021/01/31 10:09:02;;;;;;;19.30;10.23;;;1.80;83.70;;;2.08;66.47;99396.75;5004162;28;20109;-88
2021/01/31 10:11:41;;;;;;;19.98;10.90;;;1.80;83.50;;;2.16;66.49;99396.81;4989299;28;20047;-88
2021/01/31 10:14:14;;;;;;;17.55;9.73;;;1.90;83.70;;;2.19;65.67;99388.44;5004639;28;20097;-89
2021/01/31 10:16:43;;;;;;;17.13;9.55;;;1.90;82.90;;;2.20;65.86;99390.09;5004901;28;20515;-89
2021/01/31 10:19:18;;;;;;;17.10;9.15;;;2.00;82.50;;;2.28;66.19;99400.88;4989044;28;20042;-89
2021/01/31 10:21:53;;;;;;;19.08;9.75;;;2.10;82.80;;;2.31;65.88;99389.84;5004747;28;20133;-89
2021/01/31 10:24:28;;;;;;;19.25;8.98;;;2.10;82.40;;;2.35;65.99;99383.16;5004983;28;20053;-88
2021/01/31 10:27:21;;;;;;;16.88;10.05;;;2.10;82.20;;;2.40;65.07;99389.88;4988934;28;20116;-89
2021/01/31 10:29:48;;;;;;;16.30;8.52;;;2.20;81.70;;;2.39;65.15;99377.47;4990378;28;20046;-88
2021/01/31 10:32:40;;;;;;;16.00;9.50;;;2.20;81.90;;;2.42;65.34;99383.38;4988985;28;20050;-89
2021/01/31 10:35:37;;;;;;;17.40;9.02;;;2.20;81.70;;;2.44;65.12;99375.16;4988631;28;20065;-89
2021/01/31 10:38:29;;;;;;;17.58;9.35;;;2.30;81.50;;;2.47;64.35;99372.97;4934964;28;20054;-89
2021/01/31 10:40:57;;;;;;;17.42;9.05;;;2.40;80.70;;;2.52;65.04;99370.66;4989990;28;20049;-89
2021/01/31 10:43:26;;;;;;;18.77;9.82;;;2.40;81.20;;;2.54;65.22;99365.94;5005095;28;20042;-90
2021/01/31 10:45:54;;;;;;;18.55;9.57;;;2.40;81.60;;;2.58;65.76;99354.91;4973355;28;20065;-90
2021/01/31 10:48:21;;;;;;;17.45;9.77;;;2.40;82.00;;;2.62;65.65;99362.47;4969718;28;20066;-88
2021/01/31 10:51:10;;;;;;;16.52;9.00;;;2.50;82.30;;;2.64;64.71;99354.25;4967607;28;20058;-89
2021/01/31 10:53:47;;;;;;;15.65;8.80;;;2.50;80.40;;;2.67;64.54;99344.03;4981432;28;20447;-88
2021/01/31 10:56:37;;;;;;;15.65;8.60;;;2.50;80.50;;;2.71;64.35;99340.00;4989214;28;20054;-88
2021/01/31 10:59:05;;;;;;;15.50;7.88;;;2.60;80.60;;;2.75;64.21;99340.50;4969052;28;20112;-87
2021/01/31 11:01:32;;;;;;;14.15;7.95;;;2.60;79.50;;;2.74;63.51;99338.81;4967606;28;20046;-87